Terminal Aerodrome Forecast
Issued by NWS Charleston, WV

Current Version | Previous Version | Text Only | Print | Product List | Glossary Off
Versions: 1 2 3 4 5 6 7 8 9 10 11 12 13 14 15 16 17 18 19 20 21 22

778
FTUS41 KRLX 280903 AAA
TAFBKW
TAF AMD
KBKW 280903Z 2809/2906 23009G17KT 2SM RA BR FEW005 BKN080 OVC090
      TEMPO 2809/2811 4SM -RA
     FM281200 17006KT 4SM BR VCSH OVC025
     FM281300 19006KT P6SM VCSH OVC035
     FM281900 25007KT P6SM VCSH BKN040
     FM290300 VRB03KT P6SM SCT150=

USA.gov is the U.S. government's official web portal to all federal, state and local government web resources and services.